Time;durP1;ratioP1;P1;durP2;ratioP2;P2;SDS_P1;SDS_P2;PMS_P1;PMS_P2;Temp;Humidity;BMP_temperature;BMP_pressure;BME280_temperature;BME280_humidity;BME280_pressure;Samples;Min_cycle;Max_cycle;Signal;HPM_P1;HPM_P2
2022/07/26 00:00:14;;;;;;;2.17;0.32;;;18.40;99.90;;;;;;5052371;28;20063;-79
2022/07/26 00:02:40;;;;;;;0.00;0.00;;;18.40;99.90;;;;;;5035772;28;20056;-79
2022/07/26 00:05:06;;;;;;;0.00;0.00;;;18.40;99.90;;;;;;5052436;28;20045;-79
2022/07/26 00:07:32;;;;;;;0.00;0.00;;;18.40;99.90;;;;;;5035594;28;20366;-79
2022/07/26 00:09:58;;;;;;;0.10;0.08;;;18.40;99.90;;;;;;5035628;28;20052;-79
2022/07/26 00:12:23;;;;;;;1.38;0.52;;;18.40;99.90;;;;;;5052343;28;20075;-79
2022/07/26 00:14:49;;;;;;;0.20;0.10;;;18.40;99.90;;;;;;5052234;28;20048;-79
2022/07/26 00:17:15;;;;;;;2.85;0.75;;;18.30;99.90;;;;;;5052188;28;20048;-79
2022/07/26 00:19:41;;;;;;;0.52;0.13;;;18.30;99.90;;;;;;5052642;28;20045;-79
2022/07/26 00:24:50;;;;;;;0.85;0.30;;;18.30;99.90;;;;;;5052176;28;20115;-79
2022/07/26 00:27:16;;;;;;;0.00;0.00;;;18.30;99.90;;;;;;5051819;28;20041;-79
2022/07/26 00:29:42;;;;;;;0.15;0.15;;;18.30;99.90;;;;;;5052056;28;20098;-79
2022/07/26 00:32:07;;;;;;;0.00;0.00;;;18.30;99.90;;;;;;5051896;28;20110;-79
2022/07/26 00:34:33;;;;;;;0.00;0.00;;;18.30;99.90;;;;;;5055846;28;20048;-79
2022/07/26 00:36:59;;;;;;;0.00;0.00;;;18.30;99.90;;;;;;5039230;28;20056;-79
2022/07/26 00:39:25;;;;;;;0.32;0.10;;;18.30;99.90;;;;;;5055526;28;20040;-79
2022/07/26 00:41:50;;;;;;;0.00;0.00;;;18.30;99.90;;;;;;5055437;28;20044;-79
2022/07/26 00:44:16;;;;;;;0.00;0.00;;;18.40;99.90;;;;;;5055617;28;20048;-79
2022/07/26 00:46:43;;;;;;;0.00;0.00;;;18.40;99.90;;;;;;5055394;28;20496;-79
2022/07/26 00:49:09;;;;;;;0.50;0.50;;;18.40;99.90;;;;;;5038810;28;20439;-79
2022/07/26 00:51:35;;;;;;;0.00;0.00;;;18.40;99.90;;;;;;5039064;28;20049;-79
2022/07/26 00:54:01;;;;;;;0.00;0.00;;;18.40;99.90;;;;;;5038872;28;20053;-79
2022/07/26 00:56:26;;;;;;;0.00;0.00;;;18.30;99.90;;;;;;5055121;28;20107;-79
2022/07/26 00:58:52;;;;;;;0.00;0.00;;;18.30;99.90;;;;;;5055517;28;20053;-79
2022/07/26 01:01:18;;;;;;;0.20;0.00;;;18.30;99.90;;;;;;5039169;28;20194;-79
2022/07/26 01:03:44;;;;;;;1.30;0.50;;;18.30;99.90;;;;;;5054851;28;20037;-79
2022/07/26 01:06:10;;;;;;;0.00;0.00;;;18.30;99.90;;;;;;5038519;28;20365;-79
2022/07/26 01:08:36;;;;;;;0.00;0.00;;;18.20;99.90;;;;;;5038218;28;20516;-78
2022/07/26 01:11:02;;;;;;;0.22;0.22;;;18.20;99.90;;;;;;5056002;28;20136;-79
2022/07/26 01:13:28;;;;;;;0.20;0.20;;;18.20;99.90;;;;;;5055394;28;20526;-78
2022/07/26 01:15:53;;;;;;;0.00;0.00;;;18.20;99.90;;;;;;5055187;28;20049;-78
2022/07/26 01:18:19;;;;;;;0.00;0.00;;;18.10;99.90;;;;;;5055658;28;20369;-79
2022/07/26 01:20:45;;;;;;;0.00;0.00;;;18.10;99.90;;;;;;5055128;28;20207;-78
2022/07/26 01:23:12;;;;;;;0.00;0.00;;;18.10;99.90;;;;;;5038215;28;20044;-79
2022/07/26 01:25:38;;;;;;;0.00;0.00;;;18.00;99.90;;;;;;5038185;28;20057;-79
2022/07/26 01:28:04;;;;;;;0.80;0.30;;;18.00;99.90;;;;;;5054849;28;20131;-79
2022/07/26 01:30:30;;;;;;;0.00;0.00;;;18.00;99.90;;;;;;5037905;28;20519;-79
2022/07/26 01:32:56;;;;;;;0.10;0.00;;;18.00;99.90;;;;;;5038332;28;20135;-79
2022/07/26 01:35:21;;;;;;;0.00;0.00;;;17.90;99.90;;;;;;5054562;28;20063;-79
2022/07/26 01:37:47;;;;;;;0.00;0.00;;;17.90;99.90;;;;;;5038004;28;20080;-78
2022/07/26 01:40:13;;;;;;;0.00;0.00;;;17.90;99.90;;;;;;5037564;28;20052;-78
2022/07/26 01:42:40;;;;;;;0.15;0.15;;;17.90;99.90;;;;;;5054611;28;20053;-78
2022/07/26 01:45:10;;;;;;;0.63;0.45;;;17.80;99.90;;;;;;5037968;28;20091;-78
2022/07/26 01:47:37;;;;;;;0.10;0.10;;;17.80;99.90;;;;;;5037598;28;20473;-78
2022/07/26 01:50:04;;;;;;;0.00;0.00;;;17.70;99.90;;;;;;5037505;28;20522;-79
2022/07/26 01:52:29;;;;;;;0.00;0.00;;;17.80;99.90;;;;;;5037654;28;20084;-79
2022/07/26 01:54:55;;;;;;;0.00;0.00;;;17.80;99.90;;;;;;5054339;28;20389;-78
2022/07/26 01:57:20;;;;;;;0.00;0.00;;;17.70;99.90;;;;;;5037715;28;20393;-78
2022/07/26 01:59:46;;;;;;;0.00;0.00;;;17.70;99.90;;;;;;5053783;28;20492;-78
2022/07/26 02:02:12;;;;;;;0.00;0.00;;;17.70;99.90;;;;;;5054421;28;20549;-78
2022/07/26 02:07:22;;;;;;;0.00;0.00;;;17.70;99.90;;;;;;5054119;28;20141;-78
2022/07/26 02:09:47;;;;;;;0.10;0.10;;;17.70;99.90;;;;;;5037101;28;20088;-78
2022/07/26 02:12:13;;;;;;;0.28;0.17;;;17.60;99.90;;;;;;5037459;28;20136;-78
2022/07/26 02:14:39;;;;;;;0.00;0.00;;;17.60;99.90;;;;;;5054015;28;20049;-78
2022/07/26 02:17:04;;;;;;;0.00;0.00;;;17.60;99.90;;;;;;5054017;28;20540;-78
2022/07/26 02:19:30;;;;;;;0.00;0.00;;;17.60;99.90;;;;;;5037266;28;20053;-78
2022/07/26 02:21:57;;;;;;;0.00;0.00;;;17.50;99.90;;;;;;5036950;28;20048;-78
2022/07/26 02:24:27;;;;;;;0.00;0.00;;;17.50;99.90;;;;;;5053659;28;20473;-78
2022/07/26 02:26:53;;;;;;;0.00;0.00;;;17.40;99.90;;;;;;5053587;28;20174;-78
2022/07/26 02:29:19;;;;;;;0.00;0.00;;;17.40;99.90;;;;;;5053458;28;20127;-78
2022/07/26 02:31:44;;;;;;;0.00;0.00;;;17.30;99.90;;;;;;5053400;28;20124;-78
2022/07/26 02:34:10;;;;;;;0.00;0.00;;;17.30;99.90;;;;;;5052969;28;20056;-78
2022/07/26 02:36:36;;;;;;;0.52;0.20;;;17.30;99.90;;;;;;5053349;28;20049;-78
2022/07/26 02:39:03;;;;;;;0.00;0.00;;;17.30;99.90;;;;;;5053120;28;20424;-79
2022/07/26 02:41:28;;;;;;;0.17;0.15;;;17.20;99.90;;;;;;5036726;28;20060;-78
2022/07/26 02:43:54;;;;;;;0.00;0.00;;;17.20;99.90;;;;;;5034768;28;20037;-78
2022/07/26 02:46:20;;;;;;;0.00;0.00;;;17.20;99.90;;;;;;5052416;28;20060;-78
2022/07/26 02:48:45;;;;;;;1.05;0.35;;;17.20;99.90;;;;;;5036627;28;20057;-78
2022/07/26 02:51:11;;;;;;;0.00;0.00;;;17.30;99.90;;;;;;5052992;28;20045;-78
2022/07/26 02:53:37;;;;;;;0.00;0.00;;;17.30;99.90;;;;;;5053228;28;20051;-78
2022/07/26 02:56:03;;;;;;;0.00;0.00;;;17.30;99.90;;;;;;5036658;28;20049;-78
2022/07/26 02:58:28;;;;;;;0.77;0.00;;;17.30;99.90;;;;;;5052883;28;20106;-78
2022/07/26 03:00:54;;;;;;;1.85;0.57;;;17.30;99.90;;;;;;5053003;28;20049;-78
2022/07/26 03:03:20;;;;;;;0.00;0.00;;;17.30;99.90;;;;;;5036288;28;20044;-79
2022/07/26 03:05:45;;;;;;;0.00;0.00;;;17.30;99.90;;;;;;5053638;28;20056;-79
2022/07/26 03:08:11;;;;;;;0.00;0.00;;;17.30;99.90;;;;;;5052850;28;20053;-78
2022/07/26 03:10:37;;;;;;;0.00;0.00;;;17.30;99.90;;;;;;5036310;28;20082;-79
2022/07/26 03:13:03;;;;;;;0.00;0.00;;;17.30;99.90;;;;;;5052897;28;20041;-79
2022/07/26 03:15:29;;;;;;;0.35;0.30;;;17.20;99.90;;;;;;5052988;28;20369;-78
2022/07/26 03:17:54;;;;;;;0.10;0.10;;;17.20;99.90;;;;;;5035732;28;20485;-79
2022/07/26 03:20:20;;;;;;;0.00;0.00;;;17.20;99.90;;;;;;5036539;28;20377;-79
2022/07/26 03:22:46;;;;;;;0.00;0.00;;;17.20;99.90;;;;;;5052666;28;20049;-79
2022/07/26 03:25:11;;;;;;;0.00;0.00;;;17.20;99.90;;;;;;5052841;28;20099;-79
2022/07/26 03:27:37;;;;;;;0.00;0.00;;;17.20;99.90;;;;;;5052958;28;20122;-79
2022/07/26 03:30:04;;;;;;;0.00;0.00;;;17.20;99.90;;;;;;5052870;28;20128;-79
2022/07/26 03:32:30;;;;;;;2.97;0.38;;;17.20;99.90;;;;;;5036099;28;20068;-79
2022/07/26 03:34:58;;;;;;;0.45;0.05;;;17.20;99.90;;;;;;5036232;28;20095;-79
2022/07/26 03:37:24;;;;;;;0.40;0.10;;;17.20;99.90;;;;;;5035967;28;20489;-79
2022/07/26 03:39:50;;;;;;;0.10;0.00;;;17.20;99.90;;;;;;5052384;28;20049;-79
2022/07/26 03:42:16;;;;;;;0.08;0.00;;;17.20;99.90;;;;;;5035969;28;20398;-79
2022/07/26 03:44:42;;;;;;;0.00;0.00;;;17.30;99.90;;;;;;5052136;28;20135;-79
2022/07/26 03:47:08;;;;;;;0.00;0.00;;;17.20;99.90;;;;;;5035295;28;20128;-79
2022/07/26 03:49:34;;;;;;;0.00;0.00;;;17.20;99.90;;;;;;5052443;28;20073;-79
2022/07/26 03:52:00;;;;;;;0.45;0.45;;;17.30;99.90;;;;;;5035662;28;20052;-79
2022/07/26 03:54:25;;;;;;;0.43;0.20;;;17.20;99.90;;;;;;5036069;28;20053;-79
2022/07/26 03:56:51;;;;;;;0.00;0.00;;;17.20;99.90;;;;;;5052397;28;20044;-79
2022/07/26 03:59:17;;;;;;;0.00;0.00;;;17.20;99.90;;;;;;5051862;28;20159;-79
2022/07/26 04:01:44;;;;;;;0.00;0.00;;;17.20;99.90;;;;;;5035614;28;20552;-79
2022/07/26 04:04:12;;;;;;;0.00;0.00;;;17.20;99.90;;;;;;5051727;28;20110;-79
2022/07/26 04:06:38;;;;;;;0.03;0.03;;;17.10;99.90;;;;;;5035741;28;20144;-79
2022/07/26 04:09:05;;;;;;;0.00;0.00;;;17.10;99.90;;;;;;5038967;28;20378;-79
2022/07/26 04:11:34;;;;;;;1.65;0.30;;;17.20;99.90;;;;;;5056159;28;20083;-79
2022/07/26 04:14:00;;;;;;;0.00;0.00;;;17.20;99.90;;;;;;5039452;28;20080;-79
2022/07/26 04:16:26;;;;;;;0.00;0.00;;;17.20;99.90;;;;;;5039431;28;20091;-79
2022/07/26 04:18:52;;;;;;;0.00;0.00;;;17.20;99.90;;;;;;5056254;28;20450;-79
2022/07/26 04:21:18;;;;;;;0.00;0.00;;;17.20;99.90;;;;;;5056444;28;20053;-79
2022/07/26 04:23:43;;;;;;;0.17;0.05;;;17.20;99.90;;;;;;5055850;28;20386;-79
2022/07/26 04:26:09;;;;;;;0.00;0.00;;;17.20;99.90;;;;;;5055967;28;20080;-79
2022/07/26 04:28:35;;;;;;;0.00;0.00;;;17.20;99.90;;;;;;5055938;28;20127;-79
2022/07/26 04:31:01;;;;;;;0.10;0.10;;;17.10;99.90;;;;;;5056286;28;20556;-79
2022/07/26 04:33:27;;;;;;;0.00;0.00;;;17.20;99.90;;;;;;5039238;28;20045;-79
2022/07/26 04:35:52;;;;;;;0.00;0.00;;;17.20;99.90;;;;;;5039140;28;20055;-79
2022/07/26 04:38:18;;;;;;;0.30;0.10;;;17.20;99.90;;;;;;5055611;28;20041;-79
2022/07/26 04:40:44;;;;;;;0.00;0.00;;;17.20;99.90;;;;;;5055820;28;20044;-79
2022/07/26 04:43:10;;;;;;;0.00;0.00;;;17.20;99.90;;;;;;5039096;28;20053;-79
2022/07/26 04:45:36;;;;;;;0.00;0.00;;;17.20;99.90;;;;;;5055138;28;20102;-79
2022/07/26 04:48:02;;;;;;;0.47;0.30;;;17.20;99.90;;;;;;5038866;28;20056;-79
2022/07/26 04:50:30;;;;;;;0.00;0.00;;;17.20;99.90;;;;;;5056016;28;20045;-79
2022/07/26 04:52:55;;;;;;;0.00;0.00;;;17.20;99.90;;;;;;5038798;28;20041;-79
2022/07/26 04:55:21;;;;;;;0.00;0.00;;;17.20;99.90;;;;;;5038685;28;20052;-78
2022/07/26 04:57:48;;;;;;;0.00;0.00;;;17.20;99.90;;;;;;5055517;28;20045;-79
2022/07/26 05:00:16;;;;;;;0.00;0.00;;;17.20;99.90;;;;;;5038359;28;20053;-79
2022/07/26 05:02:41;;;;;;;0.00;0.00;;;17.30;99.90;;;;;;5039282;28;20053;-79
2022/07/26 05:05:07;;;;;;;0.00;0.00;;;17.20;99.90;;;;;;5038732;28;20384;-79
2022/07/26 05:07:45;;;;;;;0.00;0.00;;;17.20;99.90;;;;;;5038344;28;20198;-79
2022/07/26 05:10:11;;;;;;;0.00;0.00;;;17.30;99.90;;;;;;5055318;28;20045;-79
2022/07/26 05:12:37;;;;;;;0.00;0.00;;;17.30;99.90;;;;;;5054974;28;20540;-79
2022/07/26 05:15:04;;;;;;;0.00;0.00;;;17.30;99.90;;;;;;5055116;28;20072;-79
2022/07/26 05:17:30;;;;;;;0.00;0.00;;;17.40;99.90;;;;;;5038356;28;20045;-79
2022/07/26 05:19:55;;;;;;;0.00;0.00;;;17.50;99.90;;;;;;5037856;28;20052;-79
2022/07/26 05:22:21;;;;;;;0.00;0.00;;;17.50;99.90;;;;;;5054946;28;20051;-79
2022/07/26 05:24:46;;;;;;;0.00;0.00;;;17.50;99.90;;;;;;5054615;28;20214;-79
2022/07/26 05:27:12;;;;;;;0.00;0.00;;;17.60;99.90;;;;;;5038781;28;20040;-80
2022/07/26 05:29:38;;;;;;;0.00;0.00;;;17.60;99.90;;;;;;5038180;28;20049;-79
2022/07/26 05:32:04;;;;;;;0.00;0.00;;;17.60;99.90;;;;;;5038376;28;20040;-79
2022/07/26 05:34:30;;;;;;;0.52;0.13;;;17.70;99.90;;;;;;5038272;28;20516;-79
2022/07/26 05:36:55;;;;;;;0.00;0.00;;;17.70;99.90;;;;;;5038129;28;20048;-80
2022/07/26 05:39:21;;;;;;;0.00;0.00;;;17.70;99.90;;;;;;5054067;28;20045;-79
2022/07/26 05:41:47;;;;;;;0.00;0.00;;;17.70;99.90;;;;;;5037975;28;20098;-79
2022/07/26 05:44:13;;;;;;;0.00;0.00;;;17.70;99.90;;;;;;5038371;28;20045;-79
2022/07/26 05:46:38;;;;;;;1.00;0.60;;;17.60;99.90;;;;;;5054457;28;20041;-79
2022/07/26 05:49:04;;;;;;;0.00;0.00;;;17.60;99.90;;;;;;5037795;28;20055;-79
2022/07/26 05:51:31;;;;;;;0.00;0.00;;;17.50;99.90;;;;;;5054355;28;20049;-78
2022/07/26 05:53:56;;;;;;;0.30;0.20;;;17.50;99.90;;;;;;5054276;28;20051;-78
2022/07/26 05:56:22;;;;;;;0.00;0.00;;;17.50;99.90;;;;;;5054258;28;20131;-78
2022/07/26 05:58:48;;;;;;;0.57;0.17;;;17.50;99.90;;;;;;5053956;28;20060;-79
2022/07/26 06:01:20;;;;;;;0.00;0.00;;;17.50;99.90;;;;;;5054589;28;20396;-80
2022/07/26 06:03:45;;;;;;;0.00;0.00;;;17.50;99.90;;;;;;5053970;28;20141;-80
2022/07/26 06:06:11;;;;;;;0.00;0.00;;;17.60;99.90;;;;;;5053958;28;20102;-80
2022/07/26 06:08:37;;;;;;;0.00;0.00;;;17.60;99.90;;;;;;5037424;28;20445;-80
2022/07/26 06:11:03;;;;;;;0.00;0.00;;;17.60;99.90;;;;;;5054123;28;20056;-80
2022/07/26 06:13:28;;;;;;;0.00;0.00;;;17.60;99.90;;;;;;5037093;28;20400;-79
2022/07/26 06:15:54;;;;;;;0.00;0.00;;;17.60;99.90;;;;;;5037619;28;20055;-79
2022/07/26 06:18:20;;;;;;;0.15;0.10;;;17.60;99.90;;;;;;5053574;28;20041;-79
2022/07/26 06:20:46;;;;;;;0.00;0.00;;;17.60;99.90;;;;;;5053579;28;20055;-80
2022/07/26 06:23:12;;;;;;;0.00;0.00;;;17.70;99.90;;;;;;5037054;28;20087;-79
2022/07/26 06:25:40;;;;;;;0.00;0.00;;;17.70;99.90;;;;;;5053717;28;20538;-80
2022/07/26 06:28:07;;;;;;;1.35;0.32;;;17.70;99.90;;;;;;5053780;28;20049;-80
2022/07/26 06:30:34;;;;;;;0.00;0.00;;;17.70;99.90;;;;;;5052736;28;20611;-79
2022/07/26 06:32:59;;;;;;;0.00;0.00;;;17.60;99.90;;;;;;5053648;28;20107;-79
2022/07/26 06:35:29;;;;;;;0.00;0.00;;;17.60;99.90;;;;;;5053400;28;20500;-79
2022/07/26 06:37:56;;;;;;;0.00;0.00;;;17.60;99.90;;;;;;5053005;28;20045;-79
2022/07/26 06:40:22;;;;;;;0.00;0.00;;;17.70;99.90;;;;;;5053394;28;20068;-79
2022/07/26 06:42:48;;;;;;;0.80;0.40;;;17.70;99.90;;;;;;5053288;28;20484;-79
2022/07/26 06:45:13;;;;;;;0.00;0.00;;;17.70;99.90;;;;;;5053175;28;20049;-79
2022/07/26 06:47:39;;;;;;;0.00;0.00;;;17.70;99.90;;;;;;5036702;28;20045;-79
2022/07/26 06:50:05;;;;;;;0.00;0.00;;;17.80;99.90;;;;;;5053063;28;20041;-79
2022/07/26 06:52:34;;;;;;;0.00;0.00;;;17.80;99.90;;;;;;5053146;28;20048;-79
2022/07/26 06:55:01;;;;;;;0.30;0.10;;;17.80;99.90;;;;;;5036475;28;20052;-78
2022/07/26 06:57:27;;;;;;;0.00;0.00;;;17.90;99.90;;;;;;5053092;28;20052;-79
2022/07/26 06:59:53;;;;;;;0.00;0.00;;;18.00;99.90;;;;;;5052555;28;20049;-79
2022/07/26 07:02:19;;;;;;;0.00;0.00;;;17.90;99.90;;;;;;5052864;28;20107;-79
2022/07/26 07:04:44;;;;;;;0.47;0.30;;;17.80;99.90;;;;;;5052534;28;20052;-78
2022/07/26 07:07:10;;;;;;;0.00;0.00;;;17.80;99.90;;;;;;5052891;28;20461;-79
2022/07/26 07:09:37;;;;;;;0.00;0.00;;;17.70;99.90;;;;;;5035753;28;20488;-78
2022/07/26 07:12:04;;;;;;;0.00;0.00;;;17.70;99.90;;;;;;5052783;28;20048;-78
2022/07/26 07:14:29;;;;;;;0.00;0.00;;;17.70;99.90;;;;;;5036019;28;20045;-79
2022/07/26 07:16:56;;;;;;;0.00;0.00;;;17.70;99.90;;;;;;5036225;28;20135;-78
2022/07/26 07:19:22;;;;;;;0.00;0.00;;;17.70;99.90;;;;;;5052739;28;20053;-79
2022/07/26 07:21:47;;;;;;;0.00;0.00;;;17.80;99.90;;;;;;5026965;28;20046;-79
2022/07/26 07:24:13;;;;;;;0.00;0.00;;;17.90;99.90;;;;;;5032081;28;20921;-79
2022/07/26 07:26:40;;;;;;;0.00;0.00;;;17.90;99.90;;;;;;5032003;28;20059;-79
2022/07/26 07:29:05;;;;;;;0.00;0.00;;;17.90;99.90;;;;;;5044342;28;20068;-79
2022/07/26 07:31:31;;;;;;;0.00;0.00;;;17.80;99.90;;;;;;5035976;28;20041;-79
2022/07/26 07:33:57;;;;;;;0.00;0.00;;;17.80;99.90;;;;;;5052448;28;20040;-78
2022/07/26 07:36:23;;;;;;;0.00;0.00;;;17.80;99.90;;;;;;5051521;28;20040;-80
2022/07/26 07:38:49;;;;;;;0.08;0.08;;;17.70;99.90;;;;;;5035399;28;20041;-80
2022/07/26 07:41:14;;;;;;;0.10;0.10;;;17.80;99.90;;;;;;5036197;28;20056;-80
2022/07/26 07:43:40;;;;;;;0.10;0.00;;;17.80;99.90;;;;;;5035704;28;20092;-80
2022/07/26 07:46:06;;;;;;;0.00;0.00;;;17.70;99.90;;;;;;5051947;28;20497;-80
2022/07/26 07:48:31;;;;;;;0.00;0.00;;;17.80;99.90;;;;;;5051873;28;20037;-79
2022/07/26 07:50:57;;;;;;;0.00;0.00;;;17.80;99.90;;;;;;5016659;28;20056;-79
2022/07/26 07:53:23;;;;;;;0.00;0.00;;;17.80;99.90;;;;;;5049193;28;20033;-79
2022/07/26 07:55:49;;;;;;;0.00;0.00;;;17.80;99.90;;;;;;5066421;28;20053;-79
2022/07/26 07:58:16;;;;;;;0.00;0.00;;;17.90;99.90;;;;;;5048728;28;20056;-79
2022/07/26 08:00:41;;;;;;;0.00;0.00;;;17.90;99.90;;;;;;5049087;28;20410;-79
2022/07/26 08:03:07;;;;;;;0.40;0.35;;;17.90;99.90;;;;;;5065601;28;20034;-80
2022/07/26 08:05:33;;;;;;;0.00;0.00;;;18.00;99.90;;;;;;5065353;28;20152;-79
2022/07/26 08:07:59;;;;;;;0.00;0.00;;;18.00;99.90;;;;;;5049013;28;20068;-79
2022/07/26 08:10:25;;;;;;;0.00;0.00;;;18.10;99.90;;;;;;5048963;28;20053;-79
2022/07/26 08:12:50;;;;;;;0.00;0.00;;;18.20;99.90;;;;;;5049311;28;20049;-79
2022/07/26 08:15:16;;;;;;;0.00;0.00;;;18.40;99.90;;;;;;5065417;28;20504;-79
2022/07/26 08:17:44;;;;;;;0.55;0.13;;;18.50;99.90;;;;;;5065638;28;20042;-79
2022/07/26 08:20:10;;;;;;;0.00;0.00;;;18.60;99.90;;;;;;5065565;28;20042;-80
2022/07/26 08:22:36;;;;;;;0.00;0.00;;;18.60;99.90;;;;;;5032270;28;20573;-79
2022/07/26 08:25:02;;;;;;;0.00;0.00;;;18.60;99.90;;;;;;5048594;28;20124;-80
2022/07/26 08:27:27;;;;;;;0.30;0.30;;;18.60;99.90;;;;;;5065629;28;20539;-79
2022/07/26 08:29:53;;;;;;;0.00;0.00;;;18.50;99.90;;;;;;5031740;28;20092;-79
2022/07/26 08:32:19;;;;;;;0.00;0.00;;;18.40;99.90;;;;;;5065494;28;20466;-78
2022/07/26 08:34:44;;;;;;;0.00;0.00;;;18.30;99.90;;;;;;5065892;28;20045;-79
2022/07/26 08:37:10;;;;;;;0.00;0.00;;;18.10;99.90;;;;;;5047948;28;20053;-79
2022/07/26 08:39:36;;;;;;;0.00;0.00;;;18.00;99.90;;;;;;5032095;28;20054;-79
2022/07/26 08:42:02;;;;;;;0.00;0.00;;;17.90;99.90;;;;;;5065412;28;20037;-79
2022/07/26 08:44:29;;;;;;;0.00;0.00;;;17.90;99.90;;;;;;5048235;28;20390;-79
2022/07/26 08:46:54;;;;;;;0.00;0.00;;;17.90;99.90;;;;;;5048538;28;20440;-79
2022/07/26 08:49:20;;;;;;;0.00;0.00;;;18.00;99.90;;;;;;5048219;28;20053;-79
2022/07/26 08:51:46;;;;;;;0.00;0.00;;;18.10;99.90;;;;;;5049000;28;20079;-79
2022/07/26 08:54:13;;;;;;;0.00;0.00;;;18.30;99.90;;;;;;5033587;28;20041;-79
2022/07/26 08:56:51;;;;;;;0.00;0.00;;;18.40;99.90;;;;;;5052136;28;20120;-79
2022/07/26 08:59:18;;;;;;;0.00;0.00;;;18.60;99.90;;;;;;5035358;28;20068;-79
2022/07/26 09:01:58;;;;;;;0.00;0.00;;;18.80;99.90;;;;;;5051997;28;20110;-79
2022/07/26 09:04:36;;;;;;;0.00;0.00;;;18.90;99.90;;;;;;5034951;28;20431;-79
2022/07/26 09:07:08;;;;;;;0.10;0.10;;;19.10;99.90;;;;;;5051812;28;20072;-79
2022/07/26 09:09:37;;;;;;;0.00;0.00;;;19.30;99.90;;;;;;5051887;28;20088;-79
2022/07/26 09:12:16;;;;;;;0.00;0.00;;;19.40;99.90;;;;;;5067679;28;20053;-79
2022/07/26 09:14:45;;;;;;;0.00;0.00;;;19.50;99.90;;;;;;5035412;28;20045;-79
2022/07/26 09:17:11;;;;;;;0.00;0.00;;;19.70;99.90;;;;;;5051685;28;20516;-79
2022/07/26 09:19:37;;;;;;;0.00;0.00;;;19.80;99.90;;;;;;5035118;28;20113;-80
2022/07/26 09:22:12;;;;;;;0.00;0.00;;;19.90;99.90;;;;;;5068168;28;20041;-80
2022/07/26 09:24:43;;;;;;;0.00;0.00;;;19.80;99.90;;;;;;5068020;28;20041;-79
2022/07/26 09:27:11;;;;;;;0.00;0.00;;;19.60;99.90;;;;;;5068966;28;20049;-80
2022/07/26 09:29:46;;;;;;;0.00;0.00;;;19.50;99.90;;;;;;5050814;28;20057;-80
2022/07/26 09:32:23;;;;;;;0.00;0.00;;;19.40;99.90;;;;;;5051711;28;20052;-79
2022/07/26 09:35:08;;;;;;;0.00;0.00;;;19.40;99.90;;;;;;5051307;28;20046;-79
2022/07/26 09:37:42;;;;;;;0.00;0.00;;;19.40;99.90;;;;;;5051488;28;20060;-79
2022/07/26 09:40:11;;;;;;;0.00;0.00;;;19.60;99.90;;;;;;5051337;28;20064;-79
2022/07/26 09:42:37;;;;;;;0.00;0.00;;;19.60;99.90;;;;;;5050934;28;20057;-79
2022/07/26 09:45:15;;;;;;;0.00;0.00;;;19.40;99.90;;;;;;5050728;28;20535;-79
2022/07/26 09:47:40;;;;;;;0.00;0.00;;;19.20;99.90;;;;;;5050786;28;20058;-79
2022/07/26 09:50:12;;;;;;;0.00;0.00;;;19.10;99.90;;;;;;5067916;28;20045;-79
2022/07/26 09:52:37;;;;;;;0.00;0.00;;;19.00;99.90;;;;;;5051044;28;20523;-79
2022/07/26 09:55:06;;;;;;;1.50;0.20;;;19.00;99.90;;;;;;5051298;28;20037;-79
2022/07/26 09:57:34;;;;;;;0.08;0.08;;;19.00;99.90;;;;;;5067689;28;20041;-79
2022/07/26 10:00:04;;;;;;;0.00;0.00;;;19.00;99.90;;;;;;5050286;28;20053;-79
2022/07/26 10:02:30;;;;;;;0.00;0.00;;;18.90;99.90;;;;;;5050483;28;20508;-79
2022/07/26 10:04:55;;;;;;;0.00;0.00;;;18.90;99.90;;;;;;5033094;28;20061;-79
2022/07/26 10:07:21;;;;;;;0.00;0.00;;;18.90;99.90;;;;;;5034059;28;20044;-79
2022/07/26 10:10:13;;;;;;;0.00;0.00;;;19.00;99.90;;;;;;5067526;28;20041;-79
2022/07/26 10:12:42;;;;;;;0.00;0.00;;;19.10;99.90;;;;;;5050269;28;20060;-79
2022/07/26 10:15:40;;;;;;;0.00;0.00;;;19.30;99.90;;;;;;5067510;28;20049;-79
2022/07/26 10:18:30;;;;;;;0.00;0.00;;;19.40;99.90;;;;;;5034018;28;20088;-79
2022/07/26 10:20:56;;;;;;;0.00;0.00;;;19.70;99.90;;;;;;5017047;28;20057;-79
2022/07/26 10:23:42;;;;;;;0.00;0.00;;;19.80;99.90;;;;;;5033836;28;20048;-79
2022/07/26 10:26:10;;;;;;;0.00;0.00;;;19.80;99.90;;;;;;5050773;28;20518;-78
2022/07/26 10:28:37;;;;;;;0.00;0.00;;;19.80;99.90;;;;;;5050253;28;20060;-79
2022/07/26 10:31:24;;;;;;;0.00;0.00;;;19.80;99.90;;;;;;5033905;28;20137;-78
2022/07/26 10:33:52;;;;;;;0.00;0.00;;;19.80;99.90;;;;;;5067601;28;20429;-79
2022/07/26 10:36:22;;;;;;;0.00;0.00;;;19.80;99.90;;;;;;5066845;28;20049;-79
2022/07/26 10:39:13;;;;;;;0.85;0.20;;;19.70;99.90;;;;;;5050209;28;20052;-78
2022/07/26 10:41:45;;;;;;;0.00;0.00;;;19.80;99.90;;;;;;5049904;28;20136;-78
2022/07/26 10:44:28;;;;;;;0.00;0.00;;;19.80;99.90;;;;;;5049979;28;20538;-79
2022/07/26 10:47:10;;;;;;;0.00;0.00;;;19.90;99.90;;;;;;5033556;28;20052;-78
2022/07/26 10:49:56;;;;;;;0.00;0.00;;;19.90;99.90;;;;;;5066811;28;20089;-78
2022/07/26 10:52:26;;;;;;;0.05;0.05;;;20.10;99.90;;;;;;5050638;28;20053;-79
2022/07/26 10:54:57;;;;;;;0.10;0.00;;;20.30;99.90;;;;;;5033400;28;20045;-78
2022/07/26 10:57:31;;;;;;;0.00;0.00;;;20.50;99.90;;;;;;5050043;28;20048;-79
2022/07/26 10:59:58;;;;;;;0.75;0.20;;;20.40;99.90;;;;;;5066101;28;20056;-81
2022/07/26 11:02:34;;;;;;;0.00;0.00;;;20.30;99.90;;;;;;5066533;28;20053;-78
2022/07/26 11:05:12;;;;;;;0.00;0.00;;;20.10;99.90;;;;;;5050301;28;20085;-78
2022/07/26 11:07:51;;;;;;;0.00;0.00;;;20.00;99.90;;;;;;5060855;28;20044;-78
2022/07/26 11:10:23;;;;;;;0.00;0.00;;;19.80;99.90;;;;;;5069688;28;20056;-79
2022/07/26 11:13:01;;;;;;;0.00;0.00;;;19.60;99.90;;;;;;5059047;28;20048;-78
2022/07/26 11:15:27;;;;;;;0.03;0.03;;;19.60;99.90;;;;;;5036090;28;20045;-78
2022/07/26 11:18:05;;;;;;;0.00;0.00;;;19.70;99.90;;;;;;5036036;28;20056;-78
2022/07/26 11:20:31;;;;;;;0.00;0.00;;;19.90;99.90;;;;;;5053068;28;20532;-78
2022/07/26 11:22:56;;;;;;;0.00;0.00;;;20.10;99.90;;;;;;5035840;28;20111;-78
2022/07/26 11:25:22;;;;;;;0.22;0.00;;;20.10;99.90;;;;;;5036010;28;20102;-78
2022/07/26 11:28:02;;;;;;;0.00;0.00;;;20.10;99.90;;;;;;5036369;28;20057;-78
2022/07/26 11:30:28;;;;;;;0.00;0.00;;;20.10;99.90;;;;;;5036341;28;20500;-78
2022/07/26 11:32:57;;;;;;;0.05;0.00;;;20.00;99.90;;;;;;5052802;28;20131;-78
2022/07/26 11:35:24;;;;;;;0.00;0.00;;;19.80;99.90;;;;;;5052600;28;20099;-78
2022/07/26 11:38:00;;;;;;;0.10;0.10;;;19.60;99.90;;;;;;5052487;28;20148;-78
2022/07/26 11:40:46;;;;;;;0.00;0.00;;;19.50;99.90;;;;;;5052692;28;20055;-78
2022/07/26 11:43:12;;;;;;;0.00;0.00;;;19.50;99.90;;;;;;5035735;28;20052;-78
2022/07/26 11:45:39;;;;;;;0.47;0.47;;;19.50;99.90;;;;;;5035841;28;20045;-78
2022/07/26 11:48:05;;;;;;;0.00;0.00;;;19.40;99.90;;;;;;5035754;28;20495;-78
2022/07/26 11:50:31;;;;;;;0.55;0.20;;;19.40;99.90;;;;;;5035856;28;20055;-78
2022/07/26 11:52:57;;;;;;;0.00;0.00;;;19.40;99.90;;;;;;5036137;28;20132;-78
2022/07/26 11:55:28;;;;;;;0.00;0.00;;;19.50;99.90;;;;;;5036322;28;20077;-78
2022/07/26 11:57:54;;;;;;;0.00;0.00;;;19.70;99.90;;;;;;5035903;28;20397;-78
2022/07/26 12:00:22;;;;;;;0.00;0.00;;;19.80;99.90;;;;;;5035102;28;20053;-78
2022/07/26 12:02:48;;;;;;;0.00;0.00;;;19.90;99.90;;;;;;5052195;28;20091;-79
2022/07/26 12:05:21;;;;;;;0.00;0.00;;;19.90;99.90;;;;;;5034937;28;20550;-78
2022/07/26 12:07:59;;;;;;;0.00;0.00;;;20.00;99.90;;;;;;5052497;28;20049;-78
2022/07/26 12:10:25;;;;;;;0.00;0.00;;;20.10;99.90;;;;;;5035957;28;20061;-78
2022/07/26 12:13:14;;;;;;;0.10;0.10;;;20.10;99.90;;;;;;5035701;28;20091;-78
2022/07/26 12:15:47;;;;;;;0.55;0.13;;;19.90;99.90;;;;;;5052816;28;20076;-78
2022/07/26 12:18:28;;;;;;;0.00;0.00;;;19.80;99.90;;;;;;5036094;28;20044;-78
2022/07/26 12:21:06;;;;;;;0.10;0.10;;;19.70;99.90;;;;;;5035655;28;20049;-78
2022/07/26 12:23:49;;;;;;;0.00;0.00;;;19.60;99.90;;;;;;5052118;28;20544;-78
2022/07/26 12:26:20;;;;;;;0.00;0.00;;;19.50;99.90;;;;;;5035313;28;20080;-78
2022/07/26 12:28:46;;;;;;;0.00;0.00;;;19.60;99.90;;;;;;5036709;28;20488;-78
2022/07/26 12:31:26;;;;;;;0.00;0.00;;;19.70;99.90;;;;;;5055982;28;20049;-77
2022/07/26 12:33:52;;;;;;;0.13;0.10;;;19.80;99.90;;;;;;5054590;28;20112;-78
2022/07/26 12:36:22;;;;;;;0.08;0.00;;;19.80;99.90;;;;;;5026365;28;20084;-78
2022/07/26 12:38:51;;;;;;;1.08;0.20;;;19.80;99.90;;;;;;5035433;28;20056;-78
2022/07/26 12:41:38;;;;;;;0.00;0.00;;;19.80;99.90;;;;;;5036861;28;20049;-79
2022/07/26 12:44:05;;;;;;;0.00;0.00;;;19.90;99.90;;;;;;5070059;28;20386;-79
2022/07/26 12:46:32;;;;;;;0.00;0.00;;;19.80;99.90;;;;;;5036374;28;20131;-78
2022/07/26 12:48:58;;;;;;;0.30;0.30;;;19.90;99.90;;;;;;5053176;28;20546;-79
2022/07/26 12:51:24;;;;;;;0.32;0.30;;;20.00;99.90;;;;;;5087654;28;20196;-79
2022/07/26 12:53:49;;;;;;;0.05;0.05;;;20.10;99.90;;;;;;5052856;28;20126;-79
2022/07/26 12:56:15;;;;;;;0.00;0.00;;;20.30;99.90;;;;;;5087334;28;20083;-79